Time;durP1;ratioP1;P1;durP2;ratioP2;P2;SDS_P1;SDS_P2;PMS_P1;PMS_P2;Temp;Humidity;BMP_temperature;BMP_pressure;BME280_temperature;BME280_humidity;BME280_pressure;Samples;Min_cycle;Max_cycle;Signal;HPM_P1;HPM_P2
2022/01/03 00:01:11;;;;;;;8.13;2.47;;;8.10;99.90;;;;;;4849107;29;20079;-58
2022/01/03 00:03:37;;;;;;;11.73;2.25;;;8.10;99.90;;;;;;4884597;29;20045;-57
2022/01/03 00:06:04;;;;;;;12.43;2.38;;;8.10;99.90;;;;;;4881977;29;20071;-58
2022/01/03 00:08:30;;;;;;;9.13;1.70;;;8.20;99.90;;;;;;4866524;29;20048;-56
2022/01/03 00:10:57;;;;;;;14.07;2.20;;;8.20;99.90;;;;;;4879320;29;20135;-58
2022/01/03 00:13:23;;;;;;;12.15;2.13;;;8.20;99.90;;;;;;4878391;29;20458;-58
2022/01/03 00:15:50;;;;;;;10.95;2.67;;;8.30;99.90;;;;;;4882828;29;20067;-57
2022/01/03 00:18:16;;;;;;;13.00;2.33;;;8.30;99.90;;;;;;4862337;29;20068;-58
2022/01/03 00:20:51;;;;;;;16.25;3.03;;;8.40;99.90;;;;;;4881114;29;20453;-57
2022/01/03 00:23:19;;;;;;;13.35;2.80;;;8.40;99.90;;;;;;4881616;29;20047;-58
2022/01/03 00:25:53;;;;;;;15.95;2.90;;;8.40;99.90;;;;;;4881945;29;20052;-57
2022/01/03 00:28:25;;;;;;;13.30;2.75;;;8.50;99.90;;;;;;4876899;29;20068;-57
2022/01/03 00:30:55;;;;;;;13.63;2.75;;;8.50;99.90;;;;;;4880517;29;20048;-57
2022/01/03 00:33:22;;;;;;;17.98;2.72;;;8.60;99.90;;;;;;4881761;29;20045;-56
2022/01/03 00:35:53;;;;;;;22.38;3.20;;;8.50;99.90;;;;;;4881091;29;20055;-58
2022/01/03 00:38:21;;;;;;;15.23;3.25;;;8.60;99.90;;;;;;4866919;29;20049;-57
2022/01/03 00:40:47;;;;;;;16.92;2.67;;;8.60;99.90;;;;;;4883761;29;20059;-57
2022/01/03 00:43:15;;;;;;;15.48;2.90;;;8.60;99.90;;;;;;4881624;29;20515;-57
2022/01/03 00:45:41;;;;;;;19.60;3.42;;;8.60;99.90;;;;;;4882036;29;20104;-56
2022/01/03 00:48:08;;;;;;;16.77;2.85;;;8.60;99.90;;;;;;4880236;29;20053;-56
2022/01/03 00:50:34;;;;;;;20.15;3.05;;;8.70;99.90;;;;;;4866253;29;20576;-57
2022/01/03 00:53:00;;;;;;;13.98;2.55;;;8.70;99.90;;;;;;4866325;29;20050;-57
2022/01/03 00:55:26;;;;;;;18.45;3.05;;;8.70;99.90;;;;;;4883862;29;20098;-57
2022/01/03 00:58:05;;;;;;;25.58;3.58;;;8.70;99.90;;;;;;4862467;29;20821;-58
2022/01/03 01:00:36;;;;;;;18.05;2.80;;;8.70;99.90;;;;;;4880731;29;20802;-57
2022/01/03 01:03:04;;;;;;;24.88;3.97;;;8.70;99.90;;;;;;4861658;29;20120;-57
2022/01/03 01:05:31;;;;;;;16.23;3.65;;;8.70;99.90;;;;;;4881196;29;20558;-58
2022/01/03 01:07:57;;;;;;;20.08;3.15;;;8.70;99.90;;;;;;4881481;29;20071;-56
2022/01/03 01:10:29;;;;;;;31.63;3.90;;;8.70;99.90;;;;;;4879016;29;20609;-59
2022/01/03 01:12:56;;;;;;;24.50;3.95;;;8.60;99.90;;;;;;4880188;29;20048;-57
2022/01/03 01:15:22;;;;;;;20.85;3.40;;;8.60;99.90;;;;;;4875388;29;20075;-58
2022/01/03 01:17:48;;;;;;;22.02;2.85;;;8.60;99.90;;;;;;4881545;29;20056;-58
2022/01/03 01:20:16;;;;;;;20.95;3.08;;;8.60;99.90;;;;;;4881627;29;20511;-57
2022/01/03 01:22:42;;;;;;;20.15;3.53;;;8.60;99.90;;;;;;4878509;29;20044;-57
2022/01/03 01:30:19;;;;;;;25.55;3.75;;;8.60;99.90;;;;;;4881518;29;20131;-57
2022/01/03 01:32:54;;;;;;;26.65;4.18;;;8.60;99.90;;;;;;4880747;29;20044;-57
2022/01/03 01:35:23;;;;;;;26.55;4.03;;;8.60;99.90;;;;;;4881427;29;20052;-58
2022/01/03 01:37:55;;;;;;;21.70;4.03;;;8.60;99.90;;;;;;4864614;29;20060;-58
2022/01/03 01:40:24;;;;;;;33.65;4.30;;;8.70;99.90;;;;;;4881101;29;20134;-58
2022/01/03 01:42:50;;;;;;;30.23;4.00;;;8.70;99.90;;;;;;4866086;29;20045;-58
2022/01/03 01:45:19;;;;;;;25.10;4.70;;;8.70;99.90;;;;;;4881098;29;20052;-57
2022/01/03 01:47:47;;;;;;;23.42;4.22;;;8.70;99.90;;;;;;4878579;29;20056;-58
2022/01/03 01:50:13;;;;;;;31.92;3.92;;;8.70;99.90;;;;;;4881594;29;20055;-57
2022/01/03 01:52:39;;;;;;;22.38;3.80;;;8.70;99.90;;;;;;4881022;29;20052;-57
2022/01/03 01:55:11;;;;;;;28.10;4.57;;;8.70;99.90;;;;;;4882368;29;20052;-57
2022/01/03 01:58:01;;;;;;;21.33;3.95;;;8.70;99.90;;;;;;4861812;29;20087;-59
2022/01/03 02:00:28;;;;;;;21.85;3.42;;;8.70;99.90;;;;;;4872992;29;20052;-57
2022/01/03 02:03:05;;;;;;;19.67;3.63;;;8.70;99.90;;;;;;4879486;29;20368;-57
2022/01/03 02:05:37;;;;;;;31.83;4.20;;;8.70;99.90;;;;;;4879058;29;20052;-58
2022/01/03 02:08:07;;;;;;;28.90;4.78;;;8.80;99.90;;;;;;4863509;29;20055;-58
2022/01/03 02:10:58;;;;;;;27.00;3.97;;;8.80;99.90;;;;;;4878610;29;20052;-57
2022/01/03 02:13:25;;;;;;;22.77;4.00;;;8.80;99.90;;;;;;4861344;29;20056;-57
2022/01/03 02:16:03;;;;;;;21.67;4.13;;;8.80;99.90;;;;;;4879099;29;20134;-57
2022/01/03 02:18:31;;;;;;;26.08;4.03;;;8.80;99.90;;;;;;4877642;29;20053;-58
2022/01/03 02:20:58;;;;;;;27.15;3.75;;;8.90;99.90;;;;;;4881132;29;20495;-57
2022/01/03 02:23:24;;;;;;;24.55;4.20;;;8.90;99.90;;;;;;4865439;29;20087;-57
2022/01/03 02:25:50;;;;;;;27.08;4.57;;;8.90;99.90;;;;;;4860932;29;20053;-58
2022/01/03 02:28:20;;;;;;;29.95;4.78;;;8.90;99.90;;;;;;4876450;29;20067;-58
2022/01/03 02:30:46;;;;;;;29.27;4.53;;;8.90;99.90;;;;;;4878911;29;20094;-56
2022/01/03 02:33:12;;;;;;;33.63;4.20;;;8.90;99.90;;;;;;4869652;29;20057;-57
2022/01/03 02:35:42;;;;;;;33.65;5.70;;;8.90;99.90;;;;;;4859521;29;20576;-57
2022/01/03 02:38:09;;;;;;;31.13;4.40;;;8.90;99.90;;;;;;4879633;29;20746;-57
2022/01/03 02:40:35;;;;;;;29.35;4.32;;;8.90;99.90;;;;;;4881335;29;20493;-58
2022/01/03 02:43:02;;;;;;;23.92;4.15;;;8.90;99.90;;;;;;4879591;29;20044;-58
2022/01/03 02:45:29;;;;;;;24.75;4.28;;;8.90;99.90;;;;;;4881383;29;20176;-58
2022/01/03 02:48:00;;;;;;;35.15;4.95;;;8.90;99.90;;;;;;4878264;29;20057;-58
2022/01/03 02:50:28;;;;;;;28.00;4.30;;;8.90;99.90;;;;;;4879629;29;20112;-57
2022/01/03 02:52:55;;;;;;;28.90;5.03;;;8.90;99.90;;;;;;4862714;29;20156;-56
2022/01/03 02:55:21;;;;;;;35.67;5.25;;;8.90;99.90;;;;;;4880059;29;20056;-58
2022/01/03 02:57:49;;;;;;;29.33;5.00;;;8.80;99.90;;;;;;4860496;29;20955;-58
2022/01/03 03:00:28;;;;;;;28.48;4.57;;;8.90;99.90;;;;;;4880647;29;20112;-57
2022/01/03 03:02:54;;;;;;;29.67;4.53;;;8.80;99.90;;;;;;4877455;29;20510;-56
2022/01/03 03:05:20;;;;;;;32.72;4.88;;;8.80;99.90;;;;;;4878545;29;20047;-58
2022/01/03 03:07:48;;;;;;;28.67;4.78;;;8.80;99.90;;;;;;4858857;29;20049;-58
2022/01/03 03:10:16;;;;;;;28.10;4.68;;;8.80;99.90;;;;;;4875170;29;20059;-57
2022/01/03 03:12:43;;;;;;;39.40;5.72;;;8.80;99.90;;;;;;4863120;29;20134;-58
2022/01/03 03:15:10;;;;;;;30.38;4.80;;;8.80;99.90;;;;;;4879761;29;20059;-57
2022/01/03 03:17:37;;;;;;;30.23;4.45;;;8.80;99.90;;;;;;4862375;29;20044;-58
2022/01/03 03:20:10;;;;;;;32.22;5.00;;;8.70;99.90;;;;;;4862265;29;20582;-58
2022/01/03 03:22:37;;;;;;;29.33;4.65;;;8.70;99.90;;;;;;4862938;29;20044;-57
2022/01/03 03:25:06;;;;;;;32.22;4.53;;;8.70;99.90;;;;;;4872187;29;20144;-57
2022/01/03 03:27:34;;;;;;;34.30;4.95;;;8.70;99.90;;;;;;4877125;29;20079;-57
2022/01/03 03:30:01;;;;;;;35.35;5.10;;;8.60;99.90;;;;;;4878865;29;20044;-57
2022/01/03 03:32:28;;;;;;;35.63;4.88;;;8.60;99.90;;;;;;4881041;29;20607;-58
2022/01/03 03:34:54;;;;;;;33.00;6.57;;;8.60;99.90;;;;;;4882259;29;20154;-58
2022/01/03 03:37:21;;;;;;;32.28;4.38;;;8.60;99.90;;;;;;4862713;29;20330;-57
2022/01/03 03:39:46;;;;;;;32.92;5.60;;;8.60;99.90;;;;;;4881936;29;20056;-57
2022/01/03 03:42:13;;;;;;;31.90;4.63;;;8.50;99.90;;;;;;4864506;29;20124;-58
2022/01/03 03:44:39;;;;;;;37.28;4.88;;;8.50;99.90;;;;;;4884005;29;20044;-57
2022/01/03 03:47:07;;;;;;;29.52;4.93;;;8.50;99.90;;;;;;4882330;29;20119;-57
2022/01/03 03:49:33;;;;;;;31.88;5.63;;;8.50;99.90;;;;;;4880726;29;20131;-57
2022/01/03 03:52:01;;;;;;;34.42;5.25;;;8.50;99.90;;;;;;4884434;29;21187;-58
2022/01/03 03:54:31;;;;;;;29.77;4.63;;;8.40;99.90;;;;;;4881091;29;20139;-57
2022/01/03 03:56:58;;;;;;;36.42;5.20;;;8.30;99.90;;;;;;4884405;29;20741;-56
2022/01/03 03:59:25;;;;;;;32.05;5.57;;;8.40;99.90;;;;;;4881222;29;20108;-57
2022/01/03 04:01:51;;;;;;;34.92;5.57;;;8.40;99.90;;;;;;4867955;29;20441;-58
2022/01/03 04:04:18;;;;;;;32.63;5.30;;;8.40;99.90;;;;;;4881773;29;20056;-57
2022/01/03 04:06:44;;;;;;;33.97;5.82;;;8.40;99.90;;;;;;4882007;29;20059;-56
2022/01/03 04:09:09;;;;;;;36.17;6.55;;;8.40;99.90;;;;;;4866470;29;20044;-57
2022/01/03 04:11:35;;;;;;;27.33;4.68;;;8.40;99.90;;;;;;4884522;29;20134;-57
2022/01/03 04:14:01;;;;;;;35.25;4.43;;;8.40;99.90;;;;;;4881339;29;20044;-57
2022/01/03 04:16:27;;;;;;;39.92;5.70;;;8.30;99.90;;;;;;4882669;29;20059;-57
2022/01/03 04:18:53;;;;;;;34.97;5.45;;;8.30;99.90;;;;;;4882682;29;20056;-57
2022/01/03 04:21:19;;;;;;;37.13;5.28;;;8.30;99.90;;;;;;4881309;29;20472;-56
2022/01/03 04:23:45;;;;;;;32.42;4.75;;;8.30;99.90;;;;;;4885132;29;20044;-57
2022/01/03 04:26:11;;;;;;;23.33;5.07;;;8.40;99.90;;;;;;4881345;29;20057;-58
2022/01/03 04:28:38;;;;;;;34.38;5.00;;;8.40;99.90;;;;;;4879163;29;20139;-58
2022/01/03 04:31:04;;;;;;;34.92;5.10;;;8.40;99.90;;;;;;4882296;29;20068;-57
2022/01/03 04:33:30;;;;;;;34.05;5.30;;;8.50;99.90;;;;;;4866672;29;20053;-57
2022/01/03 04:35:56;;;;;;;36.70;5.55;;;8.40;99.90;;;;;;4884309;29;20452;-57
2022/01/03 04:38:22;;;;;;;40.08;5.35;;;8.40;99.90;;;;;;4838026;29;20058;-58
2022/01/03 04:40:48;;;;;;;35.15;5.47;;;8.40;99.90;;;;;;4884187;29;20047;-56
2022/01/03 04:43:14;;;;;;;38.35;5.55;;;8.40;99.90;;;;;;4880884;29;20424;-58
2022/01/03 04:45:40;;;;;;;43.83;5.78;;;8.40;99.90;;;;;;4880082;29;20439;-57
2022/01/03 04:48:06;;;;;;;35.33;5.38;;;8.40;99.90;;;;;;4862372;29;20733;-57
2022/01/03 04:50:31;;;;;;;31.30;4.70;;;8.40;99.90;;;;;;4880119;29;20070;-58
2022/01/03 04:52:57;;;;;;;42.53;5.57;;;8.40;99.90;;;;;;4879871;29;20521;-58
2022/01/03 04:55:23;;;;;;;36.80;6.15;;;8.40;99.90;;;;;;4881764;29;20404;-58
2022/01/03 04:57:50;;;;;;;40.92;5.38;;;8.50;99.90;;;;;;4879508;29;20059;-58
2022/01/03 05:00:17;;;;;;;34.17;5.22;;;8.40;99.90;;;;;;4883671;29;20045;-59
2022/01/03 05:02:43;;;;;;;41.08;5.40;;;8.40;99.90;;;;;;4880844;29;20049;-56
2022/01/03 05:05:09;;;;;;;31.92;5.18;;;8.40;99.90;;;;;;4863602;29;20052;-57
2022/01/03 05:07:35;;;;;;;38.65;5.88;;;8.40;99.90;;;;;;4865389;29;20053;-58
2022/01/03 05:10:01;;;;;;;38.75;6.47;;;8.40;99.90;;;;;;4879430;29;20054;-58
2022/01/03 05:12:27;;;;;;;33.65;6.40;;;8.30;99.90;;;;;;4878329;29;20869;-57
2022/01/03 05:14:52;;;;;;;35.03;5.70;;;8.40;99.90;;;;;;4881395;29;20578;-56
2022/01/03 05:17:18;;;;;;;36.17;4.63;;;8.40;99.90;;;;;;4878178;29;20044;-58
2022/01/03 05:19:44;;;;;;;32.95;5.20;;;8.40;99.90;;;;;;4878045;29;20053;-58
2022/01/03 05:22:10;;;;;;;28.38;5.15;;;8.30;99.90;;;;;;4878336;29;20052;-58
2022/01/03 05:24:37;;;;;;;34.70;5.68;;;8.40;99.90;;;;;;4882200;29;20045;-57
2022/01/03 05:27:04;;;;;;;47.50;5.93;;;8.40;99.90;;;;;;4879681;29;20056;-57
2022/01/03 05:29:30;;;;;;;45.63;6.80;;;8.40;99.90;;;;;;4879216;29;22793;-56
2022/01/03 05:31:56;;;;;;;35.08;6.00;;;8.40;99.90;;;;;;4882117;29;20052;-57
2022/01/03 05:34:22;;;;;;;38.80;5.70;;;8.40;99.90;;;;;;4881495;29;20075;-58
2022/01/03 05:36:47;;;;;;;30.52;5.43;;;8.40;99.90;;;;;;4881408;29;20048;-58
2022/01/03 05:39:14;;;;;;;29.40;5.55;;;8.40;99.90;;;;;;4880199;29;20061;-57
2022/01/03 05:41:41;;;;;;;33.72;5.85;;;8.50;99.90;;;;;;4882671;29;20104;-56
2022/01/03 05:44:07;;;;;;;39.55;5.10;;;8.40;99.90;;;;;;4862740;29;20097;-56
2022/01/03 05:46:33;;;;;;;36.90;5.28;;;8.40;99.90;;;;;;4880472;29;20093;-58
2022/01/03 05:48:59;;;;;;;33.22;6.00;;;8.40;99.90;;;;;;4881934;29;20041;-57
2022/01/03 05:51:25;;;;;;;43.03;6.15;;;8.30;99.90;;;;;;4879233;29;20056;-56
2022/01/03 05:53:53;;;;;;;37.50;5.63;;;8.40;99.90;;;;;;4880162;29;20044;-56
2022/01/03 05:56:19;;;;;;;43.20;6.72;;;8.40;99.90;;;;;;4877387;29;22113;-58
2022/01/03 05:58:46;;;;;;;47.47;7.63;;;8.40;99.90;;;;;;4882431;29;20127;-58
2022/01/03 06:01:12;;;;;;;42.05;5.60;;;8.40;99.90;;;;;;4881081;29;20049;-57
2022/01/03 06:03:39;;;;;;;42.35;6.40;;;8.40;99.90;;;;;;4877648;29;20049;-57
2022/01/03 06:08:36;;;;;;;36.83;5.70;;;8.40;99.90;;;;;;4882253;29;20067;-57
2022/01/03 06:11:02;;;;;;;36.67;6.57;;;8.40;99.90;;;;;;4845428;29;20580;-57
2022/01/03 06:13:28;;;;;;;45.60;6.72;;;8.40;99.90;;;;;;4855728;29;20044;-57
2022/01/03 06:15:53;;;;;;;39.42;5.93;;;8.40;99.90;;;;;;4882120;29;20063;-59
2022/01/03 06:18:20;;;;;;;41.85;5.93;;;8.40;99.90;;;;;;4879417;29;20840;-57
2022/01/03 06:20:47;;;;;;;44.38;7.13;;;8.40;99.90;;;;;;4880974;29;20052;-57
2022/01/03 06:23:15;;;;;;;43.25;6.55;;;8.30;99.90;;;;;;4863857;29;20051;-58
2022/01/03 06:25:41;;;;;;;47.40;6.20;;;8.30;99.90;;;;;;4865081;29;20421;-58
2022/01/03 06:28:08;;;;;;;34.08;5.50;;;8.30;99.90;;;;;;4865200;29;20532;-57
2022/01/03 06:30:40;;;;;;;38.35;6.00;;;8.30;99.90;;;;;;4881357;29;20052;-56
2022/01/03 06:33:07;;;;;;;37.95;6.68;;;8.30;99.90;;;;;;4879755;29;20099;-57
2022/01/03 06:35:35;;;;;;;40.42;5.30;;;8.20;99.90;;;;;;4859095;29;20234;-58
2022/01/03 06:38:02;;;;;;;42.47;6.10;;;8.30;99.90;;;;;;4866149;29;20084;-57
2022/01/03 06:40:28;;;;;;;42.50;5.40;;;8.30;99.90;;;;;;4881568;29;20055;-56
2022/01/03 06:42:54;;;;;;;38.60;6.35;;;8.40;99.90;;;;;;4882297;29;20048;-58
2022/01/03 06:45:20;;;;;;;41.80;6.75;;;8.40;99.90;;;;;;4880337;29;20052;-57
2022/01/03 06:47:47;;;;;;;36.80;6.22;;;8.40;99.90;;;;;;4866256;29;20048;-58
2022/01/03 06:50:13;;;;;;;36.67;6.15;;;8.40;99.90;;;;;;4878817;29;20048;-58
2022/01/03 06:52:39;;;;;;;39.50;5.68;;;8.30;99.90;;;;;;4879841;29;20071;-57
2022/01/03 06:55:08;;;;;;;34.25;6.30;;;8.30;99.90;;;;;;4866301;29;20515;-56
2022/01/03 06:57:34;;;;;;;37.92;5.47;;;8.30;99.90;;;;;;4881330;29;20052;-57
2022/01/03 06:59:59;;;;;;;44.78;6.00;;;8.30;99.90;;;;;;4880725;29;20087;-58
2022/01/03 07:02:25;;;;;;;43.75;5.97;;;8.30;99.90;;;;;;4865728;29;20135;-58
2022/01/03 07:04:51;;;;;;;40.65;6.18;;;8.40;99.90;;;;;;4884463;29;20056;-58
2022/01/03 07:07:17;;;;;;;43.85;5.85;;;8.30;99.90;;;;;;4884939;29;20467;-58
2022/01/03 07:09:43;;;;;;;35.60;5.32;;;8.40;99.90;;;;;;4867833;29;20079;-57
2022/01/03 07:12:09;;;;;;;42.35;6.38;;;8.30;99.90;;;;;;4885261;29;20057;-57
2022/01/03 07:19:56;;;;;;;35.33;6.10;;;8.30;99.90;;;;;;4883213;29;20063;-57
2022/01/03 07:22:23;;;;;;;41.83;6.95;;;8.30;99.90;;;;;;4867814;29;20044;-57
2022/01/03 07:24:50;;;;;;;37.25;6.68;;;8.30;99.90;;;;;;4870188;29;20044;-56
2022/01/03 07:27:17;;;;;;;43.53;6.38;;;8.30;99.90;;;;;;4868483;29;20532;-57
2022/01/03 07:29:43;;;;;;;45.65;6.55;;;8.40;99.90;;;;;;4868778;29;20092;-56
2022/01/03 07:32:10;;;;;;;43.40;7.55;;;8.40;99.90;;;;;;4868712;29;20840;-58
2022/01/03 07:34:36;;;;;;;39.85;6.05;;;8.40;99.90;;;;;;4885336;29;20055;-58
2022/01/03 07:37:02;;;;;;;42.83;7.20;;;8.40;99.90;;;;;;4882157;29;20056;-58
2022/01/03 07:39:31;;;;;;;42.75;5.50;;;8.40;99.90;;;;;;4863795;29;20179;-57
2022/01/03 07:42:00;;;;;;;39.17;5.95;;;8.40;99.90;;;;;;4846360;29;20492;-57
2022/01/03 07:44:26;;;;;;;42.88;6.55;;;8.40;99.90;;;;;;4867193;29;20910;-57
2022/01/03 07:46:54;;;;;;;40.40;6.63;;;8.40;99.90;;;;;;4882293;29;20566;-56
2022/01/03 07:49:21;;;;;;;45.63;6.38;;;8.40;99.90;;;;;;4886610;29;20056;-56
2022/01/03 07:51:47;;;;;;;39.88;6.05;;;8.40;99.90;;;;;;4867434;29;20059;-57
2022/01/03 07:54:13;;;;;;;37.95;6.68;;;8.40;99.90;;;;;;4865137;29;20412;-58
2022/01/03 07:56:39;;;;;;;47.13;6.55;;;8.40;99.90;;;;;;4882678;29;20571;-58
2022/01/03 07:59:05;;;;;;;45.35;6.25;;;8.40;99.90;;;;;;4865853;29;20044;-58
2022/01/03 08:01:32;;;;;;;40.88;5.72;;;8.40;99.90;;;;;;4862775;29;20059;-57
2022/01/03 08:03:58;;;;;;;41.50;5.95;;;8.40;99.90;;;;;;4865211;29;20117;-57
2022/01/03 08:06:24;;;;;;;40.78;5.68;;;8.40;99.90;;;;;;4866938;29;20056;-58
2022/01/03 08:08:50;;;;;;;43.70;6.22;;;8.40;99.90;;;;;;4884801;29;20446;-57
2022/01/03 08:11:16;;;;;;;37.22;6.40;;;8.40;99.90;;;;;;4882782;29;20135;-56
2022/01/03 08:13:42;;;;;;;41.13;6.13;;;8.40;99.90;;;;;;4886001;29;20053;-59
2022/01/03 08:16:08;;;;;;;44.67;6.28;;;8.50;99.90;;;;;;4885624;29;20053;-57
2022/01/03 08:18:34;;;;;;;47.80;6.80;;;8.50;99.90;;;;;;4866107;29;20524;-58
2022/01/03 08:21:00;;;;;;;43.15;6.55;;;8.50;99.90;;;;;;4884398;29;20056;-58
2022/01/03 08:23:26;;;;;;;39.53;5.68;;;8.60;99.90;;;;;;4884813;29;20045;-58
2022/01/03 08:25:52;;;;;;;38.08;6.47;;;8.60;99.90;;;;;;4882146;29;20575;-59
2022/01/03 08:28:18;;;;;;;42.60;6.20;;;8.60;99.90;;;;;;4868236;29;20493;-58
2022/01/03 08:30:44;;;;;;;52.58;7.07;;;8.60;99.90;;;;;;4881348;29;20536;-57
2022/01/03 08:33:10;;;;;;;40.55;6.78;;;8.60;99.90;;;;;;4880952;29;20119;-57
2022/01/03 08:35:35;;;;;;;44.58;6.68;;;8.60;99.90;;;;;;4880120;29;20060;-58
2022/01/03 08:38:04;;;;;;;43.55;5.93;;;8.60;99.90;;;;;;4859672;29;20099;-56
2022/01/03 08:40:31;;;;;;;39.92;6.68;;;8.70;99.90;;;;;;4882638;29;20053;-57
2022/01/03 08:42:58;;;;;;;38.67;6.43;;;8.70;99.90;;;;;;4864157;29;20349;-57
2022/01/03 08:45:24;;;;;;;42.65;5.78;;;8.70;99.90;;;;;;4879379;29;20059;-57
2022/01/03 08:47:50;;;;;;;37.65;6.35;;;8.70;99.90;;;;;;4863451;29;20457;-58
2022/01/03 08:50:17;;;;;;;40.38;5.85;;;8.70;99.90;;;;;;4860233;29;20055;-57
2022/01/03 08:52:45;;;;;;;33.63;6.35;;;8.80;99.90;;;;;;4884038;29;20119;-58
2022/01/03 08:55:11;;;;;;;47.15;6.88;;;8.80;99.90;;;;;;4867630;29;20170;-58
2022/01/03 08:57:38;;;;;;;41.05;6.50;;;8.80;99.90;;;;;;4887108;29;20056;-57
2022/01/03 09:00:05;;;;;;;31.40;5.70;;;8.80;99.90;;;;;;4883030;29;20544;-58
2022/01/03 09:02:31;;;;;;;36.63;5.60;;;8.90;99.90;;;;;;4887370;29;20127;-57
2022/01/03 09:04:57;;;;;;;28.27;5.18;;;8.80;99.90;;;;;;4885424;29;21849;-56
2022/01/03 09:07:23;;;;;;;34.55;6.18;;;8.90;99.90;;;;;;4886197;29;20127;-58
2022/01/03 09:09:49;;;;;;;36.00;5.63;;;8.90;99.90;;;;;;4885332;29;20411;-57
2022/01/03 09:12:15;;;;;;;36.40;5.30;;;9.00;99.90;;;;;;4884360;29;20063;-58
2022/01/03 09:14:42;;;;;;;42.55;6.93;;;9.00;99.90;;;;;;4888486;29;20079;-57
2022/01/03 09:17:08;;;;;;;38.08;5.95;;;9.00;99.90;;;;;;4886837;29;20052;-57
2022/01/03 09:19:35;;;;;;;46.50;6.13;;;9.00;99.90;;;;;;4847647;29;20151;-57
2022/01/03 09:22:13;;;;;;;42.75;5.78;;;9.10;99.90;;;;;;4886354;29;20040;-58
2022/01/03 09:24:52;;;;;;;37.40;5.60;;;9.10;99.90;;;;;;4870672;29;20103;-57
2022/01/03 09:30:06;;;;;;;34.60;6.47;;;9.00;99.90;;;;;;4887972;29;20099;-57
2022/01/03 09:32:32;;;;;;;37.03;6.30;;;9.10;99.90;;;;;;4869302;29;20066;-57
2022/01/03 09:34:58;;;;;;;32.13;5.35;;;9.10;99.90;;;;;;4865140;29;20044;-56
2022/01/03 09:37:24;;;;;;;41.33;5.55;;;9.10;99.90;;;;;;4870420;29;20052;-58
2022/01/03 09:39:50;;;;;;;40.65;5.40;;;9.10;99.90;;;;;;4871741;29;20056;-56
2022/01/03 09:42:23;;;;;;;28.75;5.95;;;9.10;99.90;;;;;;4877498;29;20187;-56
2022/01/03 09:44:50;;;;;;;30.73;5.90;;;9.10;99.90;;;;;;4881107;29;20048;-61
2022/01/03 09:47:18;;;;;;;38.83;6.43;;;9.20;99.90;;;;;;4863150;29;20053;-56
2022/01/03 09:49:45;;;;;;;32.40;5.65;;;9.20;99.90;;;;;;4883086;29;20049;-56
2022/01/03 09:52:13;;;;;;;42.50;6.22;;;9.10;99.90;;;;;;4885945;29;20115;-57
2022/01/03 09:54:40;;;;;;;35.95;5.40;;;9.20;99.90;;;;;;4886040;29;20531;-57
2022/01/03 09:57:06;;;;;;;36.22;5.63;;;9.20;99.90;;;;;;4885693;29;20048;-57
2022/01/03 09:59:33;;;;;;;36.03;5.60;;;9.20;99.90;;;;;;4884145;29;20139;-56
2022/01/03 10:02:00;;;;;;;39.70;5.43;;;9.20;99.90;;;;;;4884788;29;20110;-58
2022/01/03 10:04:27;;;;;;;36.78;5.22;;;9.20;99.90;;;;;;4883617;29;20059;-57
2022/01/03 10:06:52;;;;;;;44.25;5.10;;;9.30;99.90;;;;;;4867371;29;20048;-57
2022/01/03 10:09:20;;;;;;;35.92;5.60;;;9.30;99.90;;;;;;4887397;29;20040;-57
2022/01/03 10:11:47;;;;;;;35.58;5.57;;;9.30;99.90;;;;;;4886448;29;20047;-56
2022/01/03 10:14:13;;;;;;;43.97;6.28;;;9.30;99.90;;;;;;4859259;29;20056;-58
2022/01/03 10:16:40;;;;;;;42.75;5.78;;;9.30;99.90;;;;;;4845067;29;20053;-58
2022/01/03 10:19:06;;;;;;;39.00;5.35;;;9.30;99.90;;;;;;4881306;29;20159;-56
2022/01/03 10:21:46;;;;;;;35.55;6.05;;;9.40;99.90;;;;;;4882572;29;20048;-58
2022/01/03 10:24:13;;;;;;;33.13;5.38;;;9.30;99.90;;;;;;4882928;29;20056;-56
2022/01/03 10:26:42;;;;;;;34.20;5.18;;;9.30;99.90;;;;;;4870907;29;20044;-57
2022/01/03 10:29:22;;;;;;;36.63;5.38;;;9.40;99.90;;;;;;4868295;29;20056;-57
2022/01/03 10:31:52;;;;;;;37.40;6.00;;;9.40;99.90;;;;;;4884955;29;20444;-58
2022/01/03 10:34:21;;;;;;;44.33;5.72;;;9.40;99.90;;;;;;4867023;29;20059;-57
2022/01/03 10:36:48;;;;;;;34.08;5.63;;;9.40;99.90;;;;;;4884889;29;20040;-56
2022/01/03 10:39:18;;;;;;;42.80;6.13;;;9.50;99.90;;;;;;4852134;29;20108;-58
2022/01/03 10:41:46;;;;;;;29.10;4.78;;;9.50;99.90;;;;;;4883848;29;20045;-58
2022/01/03 10:44:41;;;;;;;33.30;5.10;;;9.50;99.90;;;;;;4868011;29;20708;-56
2022/01/03 10:47:14;;;;;;;35.75;5.72;;;9.50;99.90;;;;;;4884660;29;20048;-56
2022/01/03 10:49:42;;;;;;;30.33;5.43;;;9.50;99.90;;;;;;4883418;29;20044;-57
2022/01/03 10:52:19;;;;;;;37.97;5.30;;;9.50;99.90;;;;;;4887062;29;20051;-57
2022/01/03 10:55:13;;;;;;;34.97;6.57;;;9.50;99.90;;;;;;4888098;29;20076;-57
2022/01/03 10:57:52;;;;;;;41.20;5.88;;;9.60;99.90;;;;;;4880454;29;20060;-57
2022/01/03 11:00:31;;;;;;;35.22;5.57;;;9.60;99.90;;;;;;4881668;29;20098;-57
2022/01/03 11:03:12;;;;;;;35.78;5.10;;;9.60;99.90;;;;;;4885529;29;20044;-56
2022/01/03 11:05:40;;;;;;;32.03;5.15;;;9.60;99.90;;;;;;4868446;29;20044;-57
2022/01/03 11:10:44;;;;;;;44.75;6.97;;;9.70;99.90;;;;;;4866937;29;20445;-56
2022/01/03 11:13:12;;;;;;;36.33;6.00;;;9.70;99.90;;;;;;4880542;29;20403;-57
2022/01/03 11:16:02;;;;;;;35.38;6.13;;;9.70;99.90;;;;;;4868521;29;20106;-56
2022/01/03 11:18:31;;;;;;;38.25;5.78;;;9.70;99.90;;;;;;4884326;29;20100;-55
2022/01/03 11:21:06;;;;;;;31.80;5.60;;;9.80;99.90;;;;;;4845977;29;20087;-57
2022/01/03 11:23:32;;;;;;;35.58;5.72;;;9.70;99.90;;;;;;4883738;29;20040;-55
2022/01/03 11:26:05;;;;;;;29.85;5.25;;;9.70;99.90;;;;;;4869221;29;20116;-58
2022/01/03 11:28:30;;;;;;;;;;;9.80;99.90;;;;;;4885538;29;20057;-56
2022/01/03 11:30:59;;;;;;;31.38;4.57;;;9.80;99.90;;;;;;4849492;29;19927;-57
2022/01/03 11:33:26;;;;;;;32.08;4.68;;;9.90;99.90;;;;;;4883068;29;20134;-57
2022/01/03 11:35:52;;;;;;;34.40;4.72;;;9.90;99.90;;;;;;4869544;29;20060;-58
2022/01/03 11:38:23;;;;;;;28.02;5.38;;;9.90;99.90;;;;;;4885305;29;20052;-57
2022/01/03 11:40:50;;;;;;;34.97;5.32;;;10.00;99.90;;;;;;4848942;29;20162;-57
2022/01/03 11:43:16;;;;;;;38.03;6.05;;;10.00;99.90;;;;;;4883051;29;20048;-58
2022/01/03 11:45:42;;;;;;;28.83;5.07;;;10.00;99.90;;;;;;4863614;29;20040;-57
2022/01/03 11:48:09;;;;;;;35.22;5.25;;;10.00;99.90;;;;;;4877761;29;20798;-59
2022/01/03 11:50:39;;;;;;;33.17;4.90;;;10.00;99.90;;;;;;4880887;29;20061;-57
2022/01/03 11:53:07;;;;;;;30.23;5.32;;;10.10;99.90;;;;;;4881624;29;20513;-57
2022/01/03 11:55:39;;;;;;;28.75;4.78;;;10.10;99.90;;;;;;4884468;29;20052;-57
2022/01/03 12:06:04;;;;;;;25.90;4.82;;;10.10;99.90;;;;;;4871421;29;20788;-58
2022/01/03 12:08:35;;;;;;;36.30;5.50;;;10.10;99.90;;;;;;4870744;29;20048;-57
2022/01/03 12:11:15;;;;;;;36.70;5.80;;;10.10;99.90;;;;;;4871823;29;20080;-56
2022/01/03 12:13:48;;;;;;;31.83;4.97;;;10.10;99.90;;;;;;4887478;29;20055;-58
2022/01/03 12:16:15;;;;;;;33.40;4.85;;;10.10;99.90;;;;;;4886770;29;20056;-58
2022/01/03 12:19:00;;;;;;;30.45;5.32;;;10.10;99.90;;;;;;4871615;29;20516;-58
2022/01/03 12:21:52;;;;;;;29.58;5.03;;;10.10;99.90;;;;;;4888429;29;20579;-57
2022/01/03 12:24:27;;;;;;;37.13;6.00;;;10.10;99.90;;;;;;4887046;29;20093;-57
2022/01/03 12:29:56;;;;;;;33.35;5.40;;;10.10;99.90;;;;;;4864309;29;20068;-56
2022/01/03 12:32:30;;;;;;;28.90;4.70;;;10.00;99.90;;;;;;4884747;29;20100;-56
2022/01/03 12:35:15;;;;;;;28.40;4.82;;;9.90;99.90;;;;;;4871676;29;20048;-58
2022/01/03 12:37:49;;;;;;;25.77;4.68;;;9.90;99.90;;;;;;4867984;29;20052;-57
2022/01/03 12:40:22;;;;;;;24.98;4.22;;;9.90;99.90;;;;;;4853581;29;20076;-58
2022/01/03 12:42:48;;;;;;;40.60;5.18;;;9.90;99.90;;;;;;4887316;29;20048;-57
2022/01/03 12:45:34;;;;;;;24.80;4.68;;;9.90;99.90;;;;;;4885808;29;20056;-57
2022/01/03 12:48:09;;;;;;;29.27;4.78;;;10.00;99.90;;;;;;4885557;29;20045;-61
2022/01/03 12:50:36;;;;;;;32.70;5.13;;;10.00;99.90;;;;;;4863787;29;20127;-58
2022/01/03 12:53:03;;;;;;;30.38;5.22;;;10.00;99.90;;;;;;4864591;29;20067;-59
2022/01/03 12:55:38;;;;;;;34.13;5.07;;;10.00;99.90;;;;;;4857539;29;20567;-59
2022/01/03 12:58:19;;;;;;;28.70;4.97;;;10.10;99.90;;;;;;4848502;29;20488;-59
2022/01/03 13:00:57;;;;;;;34.85;5.22;;;10.10;99.90;;;;;;4872027;29;20117;-59
2022/01/03 13:03:47;;;;;;;26.80;4.70;;;10.10;99.90;;;;;;4873848;29;20617;-59
2022/01/03 13:06:21;;;;;;;34.75;5.43;;;10.10;99.90;;;;;;4890758;29;20159;-58
2022/01/03 13:08:47;;;;;;;31.58;5.28;;;10.10;99.90;;;;;;4889178;29;20045;-59
2022/01/03 13:11:15;;;;;;;38.17;5.75;;;10.10;99.90;;;;;;4889056;29;20059;-59
2022/01/03 13:13:42;;;;;;;34.30;5.00;;;10.00;99.90;;;;;;4891276;29;20052;-59
2022/01/03 13:16:28;;;;;;;33.65;4.88;;;10.10;99.90;;;;;;4873068;29;20084;-59
2022/01/03 13:19:13;;;;;;;30.85;5.00;;;10.10;99.90;;;;;;4872990;29;20052;-59
2022/01/03 13:21:51;;;;;;;33.08;4.90;;;10.10;99.90;;;;;;4889698;29;20057;-59